sensor_id;sensor_type;location;lat;lon;timestamp;temperature;humidity
78467;SHT31;67759;51.972;5.650;2023-04-03T00:00:48;5.8;58.3
78467;SHT31;67759;51.972;5.650;2023-04-03T00:03:19;5.8;58.2
78467;SHT31;67759;51.972;5.650;2023-04-03T00:05:49;5.7;59.2
78467;SHT31;67759;51.972;5.650;2023-04-03T00:08:18;5.7;58.2
78467;SHT31;67759;51.972;5.650;2023-04-03T00:10:49;5.6;58.9
78467;SHT31;67759;51.972;5.650;2023-04-03T00:13:19;5.6;58.9
78467;SHT31;67759;51.972;5.650;2023-04-03T00:15:48;5.6;58.5
78467;SHT31;67759;51.972;5.650;2023-04-03T00:18:18;5.6;58.3
78467;SHT31;67759;51.972;5.650;2023-04-03T00:20:49;5.6;59.0
78467;SHT31;67759;51.972;5.650;2023-04-03T00:23:18;5.6;58.9
78467;SHT31;67759;51.972;5.650;2023-04-03T00:25:48;5.6;58.7
78467;SHT31;67759;51.972;5.650;2023-04-03T00:28:18;5.6;58.5
78467;SHT31;67759;51.972;5.650;2023-04-03T00:30:48;5.5;58.5
78467;SHT31;67759;51.972;5.650;2023-04-03T00:33:18;5.5;58.4
78467;SHT31;67759;51.972;5.650;2023-04-03T00:35:49;5.5;58.4
78467;SHT31;67759;51.972;5.650;2023-04-03T00:38:20;5.5;58.2
78467;SHT31;67759;51.972;5.650;2023-04-03T00:40:49;5.5;58.7
78467;SHT31;67759;51.972;5.650;2023-04-03T00:43:21;5.5;58.8
78467;SHT31;67759;51.972;5.650;2023-04-03T00:45:52;5.5;58.7
78467;SHT31;67759;51.972;5.650;2023-04-03T00:48:26;5.5;58.7
78467;SHT31;67759;51.972;5.650;2023-04-03T00:50:58;5.4;59.0
78467;SHT31;67759;51.972;5.650;2023-04-03T00:53:32;5.4;58.7
78467;SHT31;67759;51.972;5.650;2023-04-03T00:56:06;5.4;59.0
78467;SHT31;67759;51.972;5.650;2023-04-03T00:58:42;5.4;59.1
78467;SHT31;67759;51.972;5.650;2023-04-03T01:01:18;5.4;58.7
78467;SHT31;67759;51.972;5.650;2023-04-03T01:03:49;5.3;59.0
78467;SHT31;67759;51.972;5.650;2023-04-03T01:06:23;5.3;59.2
78467;SHT31;67759;51.972;5.650;2023-04-03T01:08:55;5.3;59.5
78467;SHT31;67759;51.972;5.650;2023-04-03T01:11:25;5.3;59.5
78467;SHT31;67759;51.972;5.650;2023-04-03T01:13:55;5.2;59.6
78467;SHT31;67759;51.972;5.650;2023-04-03T01:16:24;5.2;59.8
78467;SHT31;67759;51.972;5.650;2023-04-03T01:18:58;5.2;59.7
78467;SHT31;67759;51.972;5.650;2023-04-03T01:23:49;5.2;59.5
78467;SHT31;67759;51.972;5.650;2023-04-03T01:26:20;5.1;60.1
78467;SHT31;67759;51.972;5.650;2023-04-03T01:28:50;5.1;60.3
78467;SHT31;67759;51.972;5.650;2023-04-03T01:31:24;5.1;60.8
78467;SHT31;67759;51.972;5.650;2023-04-03T01:33:55;5.1;60.4
78467;SHT31;67759;51.972;5.650;2023-04-03T01:36:27;5.0;60.3
78467;SHT31;67759;51.972;5.650;2023-04-03T01:38:58;5.0;60.4
78467;SHT31;67759;51.972;5.650;2023-04-03T01:41:28;5.0;60.6
78467;SHT31;67759;51.972;5.650;2023-04-03T01:44:00;5.0;60.7
78467;SHT31;67759;51.972;5.650;2023-04-03T01:46:31;4.9;60.9
78467;SHT31;67759;51.972;5.650;2023-04-03T01:49:01;4.9;61.2
78467;SHT31;67759;51.972;5.650;2023-04-03T01:51:31;4.9;61.5
78467;SHT31;67759;51.972;5.650;2023-04-03T01:54:01;4.9;61.4
78467;SHT31;67759;51.972;5.650;2023-04-03T01:56:30;4.9;61.7
78467;SHT31;67759;51.972;5.650;2023-04-03T01:59:00;4.9;61.5
78467;SHT31;67759;51.972;5.650;2023-04-03T02:01:29;4.9;61.4
78467;SHT31;67759;51.972;5.650;2023-04-03T02:03:59;4.8;61.8
78467;SHT31;67759;51.972;5.650;2023-04-03T02:06:29;4.8;61.8
78467;SHT31;67759;51.972;5.650;2023-04-03T02:08:59;4.8;61.9
78467;SHT31;67759;51.972;5.650;2023-04-03T02:11:28;4.8;62.0
78467;SHT31;67759;51.972;5.650;2023-04-03T02:13:58;4.8;62.1
78467;SHT31;67759;51.972;5.650;2023-04-03T02:16:27;4.8;62.7
78467;SHT31;67759;51.972;5.650;2023-04-03T02:18:58;4.8;62.1
78467;SHT31;67759;51.972;5.650;2023-04-03T02:21:29;4.8;62.0
78467;SHT31;67759;51.972;5.650;2023-04-03T02:24:01;4.8;62.3
78467;SHT31;67759;51.972;5.650;2023-04-03T02:26:30;4.8;62.3
78467;SHT31;67759;51.972;5.650;2023-04-03T02:29:01;4.8;62.5
78467;SHT31;67759;51.972;5.650;2023-04-03T02:31:31;4.8;62.7
78467;SHT31;67759;51.972;5.650;2023-04-03T02:34:01;4.8;62.5
78467;SHT31;67759;51.972;5.650;2023-04-03T02:36:31;4.8;62.4
78467;SHT31;67759;51.972;5.650;2023-04-03T02:39:01;4.8;62.7
78467;SHT31;67759;51.972;5.650;2023-04-03T02:41:31;4.8;62.5
78467;SHT31;67759;51.972;5.650;2023-04-03T02:44:04;4.8;62.7
78467;SHT31;67759;51.972;5.650;2023-04-03T02:46:34;4.8;62.8
78467;SHT31;67759;51.972;5.650;2023-04-03T02:49:04;4.8;62.8
78467;SHT31;67759;51.972;5.650;2023-04-03T02:51:33;4.7;63.1
78467;SHT31;67759;51.972;5.650;2023-04-03T02:54:03;4.7;63.1
78467;SHT31;67759;51.972;5.650;2023-04-03T02:56:33;4.7;63.1
78467;SHT31;67759;51.972;5.650;2023-04-03T02:59:04;4.7;63.2
78467;SHT31;67759;51.972;5.650;2023-04-03T03:01:34;4.7;63.4
78467;SHT31;67759;51.972;5.650;2023-04-03T03:04:04;4.7;63.3
78467;SHT31;67759;51.972;5.650;2023-04-03T03:06:33;4.7;63.2
78467;SHT31;67759;51.972;5.650;2023-04-03T03:09:03;4.6;63.5
78467;SHT31;67759;51.972;5.650;2023-04-03T03:11:33;4.6;63.5
78467;SHT31;67759;51.972;5.650;2023-04-03T03:14:02;4.6;63.6
78467;SHT31;67759;51.972;5.650;2023-04-03T03:16:34;4.6;64.1
78467;SHT31;67759;51.972;5.650;2023-04-03T03:19:03;4.5;63.9
78467;SHT31;67759;51.972;5.650;2023-04-03T03:21:34;4.5;63.8
78467;SHT31;67759;51.972;5.650;2023-04-03T03:24:04;4.5;64.0
78467;SHT31;67759;51.972;5.650;2023-04-03T03:26:37;4.5;64.4
78467;SHT31;67759;51.972;5.650;2023-04-03T03:29:06;4.5;64.4
78467;SHT31;67759;51.972;5.650;2023-04-03T03:31:36;4.4;64.2
78467;SHT31;67759;51.972;5.650;2023-04-03T03:34:05;4.4;64.5
78467;SHT31;67759;51.972;5.650;2023-04-03T03:36:35;4.4;64.9
78467;SHT31;67759;51.972;5.650;2023-04-03T03:39:05;4.3;64.8
78467;SHT31;67759;51.972;5.650;2023-04-03T03:41:36;4.3;64.9
78467;SHT31;67759;51.972;5.650;2023-04-03T03:44:06;4.3;65.1
78467;SHT31;67759;51.972;5.650;2023-04-03T03:46:36;4.3;65.2
78467;SHT31;67759;51.972;5.650;2023-04-03T03:49:05;4.3;65.2
78467;SHT31;67759;51.972;5.650;2023-04-03T03:51:35;4.3;65.6
78467;SHT31;67759;51.972;5.650;2023-04-03T03:54:05;4.3;65.7
78467;SHT31;67759;51.972;5.650;2023-04-03T03:56:35;4.2;65.6
78467;SHT31;67759;51.972;5.650;2023-04-03T03:59:05;4.2;65.7
78467;SHT31;67759;51.972;5.650;2023-04-03T04:01:35;4.2;65.5
78467;SHT31;67759;51.972;5.650;2023-04-03T04:04:05;4.2;65.7
78467;SHT31;67759;51.972;5.650;2023-04-03T04:06:34;4.2;65.8
78467;SHT31;67759;51.972;5.650;2023-04-03T04:09:04;4.2;65.9
78467;SHT31;67759;51.972;5.650;2023-04-03T04:11:34;4.2;65.7
78467;SHT31;67759;51.972;5.650;2023-04-03T04:14:04;4.2;65.8
78467;SHT31;67759;51.972;5.650;2023-04-03T04:16:33;4.1;65.8
78467;SHT31;67759;51.972;5.650;2023-04-03T04:19:03;4.1;66.0
78467;SHT31;67759;51.972;5.650;2023-04-03T04:21:32;4.1;66.1
78467;SHT31;67759;51.972;5.650;2023-04-03T04:24:02;4.1;66.5
78467;SHT31;67759;51.972;5.650;2023-04-03T04:26:32;4.1;66.3
78467;SHT31;67759;51.972;5.650;2023-04-03T04:29:02;4.1;66.4
78467;SHT31;67759;51.972;5.650;2023-04-03T04:31:32;4.1;65.9
78467;SHT31;67759;51.972;5.650;2023-04-03T04:34:02;4.1;66.2
78467;SHT31;67759;51.972;5.650;2023-04-03T04:36:33;4.1;65.9
78467;SHT31;67759;51.972;5.650;2023-04-03T04:39:03;4.1;65.8
78467;SHT31;67759;51.972;5.650;2023-04-03T04:41:33;4.1;65.8
78467;SHT31;67759;51.972;5.650;2023-04-03T04:44:06;4.1;65.9
78467;SHT31;67759;51.972;5.650;2023-04-03T04:46:35;4.1;65.8
78467;SHT31;67759;51.972;5.650;2023-04-03T04:49:05;4.1;65.9
78467;SHT31;67759;51.972;5.650;2023-04-03T04:51:37;4.0;65.9
78467;SHT31;67759;51.972;5.650;2023-04-03T04:54:06;4.0;65.9
78467;SHT31;67759;51.972;5.650;2023-04-03T04:56:36;3.9;66.5
78467;SHT31;67759;51.972;5.650;2023-04-03T04:59:05;3.9;66.6
78467;SHT31;67759;51.972;5.650;2023-04-03T05:01:35;3.8;66.5
78467;SHT31;67759;51.972;5.650;2023-04-03T05:04:05;3.8;66.9
78467;SHT31;67759;51.972;5.650;2023-04-03T05:06:35;3.8;67.1
78467;SHT31;67759;51.972;5.650;2023-04-03T05:09:05;3.8;67.2
78467;SHT31;67759;51.972;5.650;2023-04-03T05:11:34;3.7;67.0
78467;SHT31;67759;51.972;5.650;2023-04-03T05:14:05;3.7;67.1
78467;SHT31;67759;51.972;5.650;2023-04-03T05:16:35;3.7;67.2
78467;SHT31;67759;51.972;5.650;2023-04-03T05:19:05;3.6;67.2
78467;SHT31;67759;51.972;5.650;2023-04-03T05:21:35;3.6;67.4
78467;SHT31;67759;51.972;5.650;2023-04-03T05:24:05;3.5;67.5
78467;SHT31;67759;51.972;5.650;2023-04-03T05:26:36;3.5;67.9
78467;SHT31;67759;51.972;5.650;2023-04-03T05:29:06;3.5;67.9
78467;SHT31;67759;51.972;5.650;2023-04-03T05:31:36;3.4;67.9
78467;SHT31;67759;51.972;5.650;2023-04-03T05:34:06;3.4;68.0
78467;SHT31;67759;51.972;5.650;2023-04-03T05:36:37;3.4;68.2
78467;SHT31;67759;51.972;5.650;2023-04-03T05:39:09;3.4;68.2
78467;SHT31;67759;51.972;5.650;2023-04-03T05:41:39;3.3;68.3
78467;SHT31;67759;51.972;5.650;2023-04-03T05:44:08;3.3;68.2
78467;SHT31;67759;51.972;5.650;2023-04-03T05:46:38;3.3;68.2
78467;SHT31;67759;51.972;5.650;2023-04-03T05:49:07;3.3;68.2
78467;SHT31;67759;51.972;5.650;2023-04-03T05:51:38;3.3;68.1
78467;SHT31;67759;51.972;5.650;2023-04-03T05:54:12;3.3;68.3
78467;SHT31;67759;51.972;5.650;2023-04-03T05:56:42;3.3;68.3
78467;SHT31;67759;51.972;5.650;2023-04-03T05:59:12;3.3;68.0
78467;SHT31;67759;51.972;5.650;2023-04-03T06:01:42;3.3;68.1
78467;SHT31;67759;51.972;5.650;2023-04-03T06:04:12;3.3;68.4
78467;SHT31;67759;51.972;5.650;2023-04-03T06:06:48;3.3;68.6
78467;SHT31;67759;51.972;5.650;2023-04-03T06:09:20;3.4;68.3
78467;SHT31;67759;51.972;5.650;2023-04-03T06:11:51;3.4;68.1
78467;SHT31;67759;51.972;5.650;2023-04-03T06:14:20;3.5;67.8
78467;SHT31;67759;51.972;5.650;2023-04-03T06:16:50;3.5;67.6
78467;SHT31;67759;51.972;5.650;2023-04-03T06:19:19;3.6;67.2
78467;SHT31;67759;51.972;5.650;2023-04-03T06:21:49;3.6;66.6
78467;SHT31;67759;51.972;5.650;2023-04-03T06:24:19;3.7;66.2
78467;SHT31;67759;51.972;5.650;2023-04-03T06:26:52;3.7;66.4
78467;SHT31;67759;51.972;5.650;2023-04-03T06:29:22;3.7;66.3
78467;SHT31;67759;51.972;5.650;2023-04-03T06:31:52;3.8;66.0
78467;SHT31;67759;51.972;5.650;2023-04-03T06:34:22;3.8;66.2
78467;SHT31;67759;51.972;5.650;2023-04-03T06:36:52;3.9;65.9
78467;SHT31;67759;51.972;5.650;2023-04-03T06:39:22;4.0;65.7
78467;SHT31;67759;51.972;5.650;2023-04-03T06:41:52;4.0;65.4
78467;SHT31;67759;51.972;5.650;2023-04-03T06:44:22;4.1;64.9
78467;SHT31;67759;51.972;5.650;2023-04-03T06:46:52;4.2;64.3
78467;SHT31;67759;51.972;5.650;2023-04-03T06:49:22;4.3;64.5
78467;SHT31;67759;51.972;5.650;2023-04-03T06:51:52;4.4;64.0
78467;SHT31;67759;51.972;5.650;2023-04-03T06:54:23;4.6;63.3
78467;SHT31;67759;51.972;5.650;2023-04-03T06:56:52;4.8;62.2
78467;SHT31;67759;51.972;5.650;2023-04-03T06:59:23;5.0;61.8
78467;SHT31;67759;51.972;5.650;2023-04-03T07:01:53;5.2;60.3
78467;SHT31;67759;51.972;5.650;2023-04-03T07:04:22;5.4;60.1
78467;SHT31;67759;51.972;5.650;2023-04-03T07:06:52;5.5;59.6
78467;SHT31;67759;51.972;5.650;2023-04-03T07:09:24;5.6;59.0
78467;SHT31;67759;51.972;5.650;2023-04-03T07:11:53;5.6;58.7
78467;SHT31;67759;51.972;5.650;2023-04-03T07:14:23;5.7;58.4
78467;SHT31;67759;51.972;5.650;2023-04-03T07:16:52;5.7;58.7
78467;SHT31;67759;51.972;5.650;2023-04-03T07:19:22;5.7;58.2
78467;SHT31;67759;51.972;5.650;2023-04-03T07:21:54;5.7;58.6
78467;SHT31;67759;51.972;5.650;2023-04-03T07:24:26;5.8;58.2
78467;SHT31;67759;51.972;5.650;2023-04-03T07:26:55;5.8;58.4
78467;SHT31;67759;51.972;5.650;2023-04-03T07:29:25;5.9;57.0
78467;SHT31;67759;51.972;5.650;2023-04-03T07:31:54;6.0;56.8
78467;SHT31;67759;51.972;5.650;2023-04-03T07:34:24;6.0;55.8
78467;SHT31;67759;51.972;5.650;2023-04-03T07:36:53;6.1;56.0
78467;SHT31;67759;51.972;5.650;2023-04-03T07:39:24;6.1;56.1
78467;SHT31;67759;51.972;5.650;2023-04-03T07:41:54;6.2;55.7
78467;SHT31;67759;51.972;5.650;2023-04-03T07:44:24;6.2;56.1
78467;SHT31;67759;51.972;5.650;2023-04-03T07:46:54;6.3;56.3
78467;SHT31;67759;51.972;5.650;2023-04-03T07:49:24;6.4;54.8
78467;SHT31;67759;51.972;5.650;2023-04-03T07:51:53;6.5;53.9
78467;SHT31;67759;51.972;5.650;2023-04-03T07:54:23;6.6;52.9
78467;SHT31;67759;51.972;5.650;2023-04-03T07:56:54;6.6;52.6
78467;SHT31;67759;51.972;5.650;2023-04-03T07:59:24;6.7;52.9
78467;SHT31;67759;51.972;5.650;2023-04-03T08:01:54;6.8;52.0
78467;SHT31;67759;51.972;5.650;2023-04-03T08:04:24;6.9;52.4
78467;SHT31;67759;51.972;5.650;2023-04-03T08:06:54;7.0;51.3
78467;SHT31;67759;51.972;5.650;2023-04-03T08:09:23;7.1;48.9
78467;SHT31;67759;51.972;5.650;2023-04-03T08:11:53;7.2;48.6
78467;SHT31;67759;51.972;5.650;2023-04-03T08:14:23;7.3;46.9
78467;SHT31;67759;51.972;5.650;2023-04-03T08:16:53;7.4;48.3
78467;SHT31;67759;51.972;5.650;2023-04-03T08:19:23;7.5;46.7
78467;SHT31;67759;51.972;5.650;2023-04-03T08:21:53;7.6;46.8
78467;SHT31;67759;51.972;5.650;2023-04-03T08:24:24;7.7;46.4
78467;SHT31;67759;51.972;5.650;2023-04-03T08:26:54;7.8;44.3
78467;SHT31;67759;51.972;5.650;2023-04-03T08:29:25;7.9;44.0
78467;SHT31;67759;51.972;5.650;2023-04-03T08:31:54;7.9;41.7
78467;SHT31;67759;51.972;5.650;2023-04-03T08:34:24;8.0;41.7
78467;SHT31;67759;51.972;5.650;2023-04-03T08:36:54;8.1;40.1
78467;SHT31;67759;51.972;5.650;2023-04-03T08:39:24;8.1;41.6
78467;SHT31;67759;51.972;5.650;2023-04-03T08:41:58;8.2;41.7
78467;SHT31;67759;51.972;5.650;2023-04-03T08:44:39;8.3;40.5
78467;SHT31;67759;51.972;5.650;2023-04-03T08:47:21;8.5;38.6
78467;SHT31;67759;51.972;5.650;2023-04-03T08:49:56;8.6;36.9
78467;SHT31;67759;51.972;5.650;2023-04-03T08:52:34;8.7;33.1
78467;SHT31;67759;51.972;5.650;2023-04-03T08:55:07;8.8;32.6
78467;SHT31;67759;51.972;5.650;2023-04-03T08:57:44;8.9;33.8
78467;SHT31;67759;51.972;5.650;2023-04-03T09:00:20;9.0;32.8
78467;SHT31;67759;51.972;5.650;2023-04-03T09:02:52;9.1;30.1
78467;SHT31;67759;51.972;5.650;2023-04-03T09:05:32;9.1;30.7
78467;SHT31;67759;51.972;5.650;2023-04-03T09:08:14;9.2;30.4
78467;SHT31;67759;51.972;5.650;2023-04-03T09:10:48;9.3;29.5
78467;SHT31;67759;51.972;5.650;2023-04-03T09:13:30;9.3;29.1
78467;SHT31;67759;51.972;5.650;2023-04-03T09:16:14;9.3;28.3
78467;SHT31;67759;51.972;5.650;2023-04-03T09:18:55;9.4;29.0
78467;SHT31;67759;51.972;5.650;2023-04-03T09:21:32;9.5;28.6
78467;SHT31;67759;51.972;5.650;2023-04-03T09:24:06;9.6;29.2
78467;SHT31;67759;51.972;5.650;2023-04-03T09:26:43;9.7;26.6
78467;SHT31;67759;51.972;5.650;2023-04-03T09:29:18;9.7;26.3
78467;SHT31;67759;51.972;5.650;2023-04-03T09:31:54;9.8;25.5
78467;SHT31;67759;51.972;5.650;2023-04-03T09:34:28;9.8;25.1
78467;SHT31;67759;51.972;5.650;2023-04-03T09:37:00;9.9;26.4
78467;SHT31;67759;51.972;5.650;2023-04-03T09:39:51;9.9;26.8
78467;SHT31;67759;51.972;5.650;2023-04-03T09:42:22;10.0;25.8
78467;SHT31;67759;51.972;5.650;2023-04-03T09:44:57;10.0;27.7
78467;SHT31;67759;51.972;5.650;2023-04-03T09:47:29;10.1;27.6
78467;SHT31;67759;51.972;5.650;2023-04-03T09:50:21;10.1;26.0
78467;SHT31;67759;51.972;5.650;2023-04-03T09:52:51;10.1;26.6
78467;SHT31;67759;51.972;5.650;2023-04-03T09:55:23;10.2;25.7
78467;SHT31;67759;51.972;5.650;2023-04-03T09:57:58;10.2;26.0
78467;SHT31;67759;51.972;5.650;2023-04-03T10:00:31;10.2;25.0
78467;SHT31;67759;51.972;5.650;2023-04-03T10:03:20;10.3;26.2
78467;SHT31;67759;51.972;5.650;2023-04-03T10:05:42;10.3;25.8
78467;SHT31;67759;51.972;5.650;2023-04-03T10:08:25;10.4;26.5
78467;SHT31;67759;51.972;5.650;2023-04-03T10:11:10;10.4;24.5
78467;SHT31;67759;51.972;5.650;2023-04-03T10:13:52;10.4;25.8
78467;SHT31;67759;51.972;5.650;2023-04-03T10:16:25;10.5;25.2
78467;SHT31;67759;51.972;5.650;2023-04-03T10:19:57;10.5;26.7
78467;SHT31;67759;51.972;5.650;2023-04-03T10:22:40;10.5;26.1
78467;SHT31;67759;51.972;5.650;2023-04-03T10:25:17;10.5;25.8
78467;SHT31;67759;51.972;5.650;2023-04-03T10:27:55;10.5;25.9
78467;SHT31;67759;51.972;5.650;2023-04-03T10:30:36;10.5;25.9
78467;SHT31;67759;51.972;5.650;2023-04-03T10:33:20;10.5;26.9
78467;SHT31;67759;51.972;5.650;2023-04-03T10:36:05;10.5;28.2
78467;SHT31;67759;51.972;5.650;2023-04-03T10:38:45;10.6;26.2
78467;SHT31;67759;51.972;5.650;2023-04-03T10:41:26;10.6;26.5
78467;SHT31;67759;51.972;5.650;2023-04-03T10:44:11;10.6;27.1
78467;SHT31;67759;51.972;5.650;2023-04-03T10:46:47;10.6;27.8
78467;SHT31;67759;51.972;5.650;2023-04-03T10:49:34;10.7;28.2
78467;SHT31;67759;51.972;5.650;2023-04-03T10:52:17;10.8;29.9
78467;SHT31;67759;51.972;5.650;2023-04-03T10:54:56;10.8;28.3
78467;SHT31;67759;51.972;5.650;2023-04-03T10:57:32;10.9;29.3
78467;SHT31;67759;51.972;5.650;2023-04-03T11:00:05;11.0;27.7
78467;SHT31;67759;51.972;5.650;2023-04-03T11:02:45;11.1;27.6
78467;SHT31;67759;51.972;5.650;2023-04-03T11:05:25;11.1;28.1
78467;SHT31;67759;51.972;5.650;2023-04-03T11:08:04;11.1;28.8
78467;SHT31;67759;51.972;5.650;2023-04-03T11:10:42;11.2;28.9
78467;SHT31;67759;51.972;5.650;2023-04-03T11:13:17;11.2;28.5
78467;SHT31;67759;51.972;5.650;2023-04-03T11:15:49;11.3;29.4
78467;SHT31;67759;51.972;5.650;2023-04-03T11:18:25;11.4;28.8
78467;SHT31;67759;51.972;5.650;2023-04-03T11:21:02;11.5;28.0
78467;SHT31;67759;51.972;5.650;2023-04-03T11:23:35;11.6;29.1
78467;SHT31;67759;51.972;5.650;2023-04-03T11:26:11;11.6;28.9
78467;SHT31;67759;51.972;5.650;2023-04-03T11:28:44;11.7;29.8
78467;SHT31;67759;51.972;5.650;2023-04-03T11:31:28;11.8;29.3
78467;SHT31;67759;51.972;5.650;2023-04-03T11:34:05;11.9;27.7
78467;SHT31;67759;51.972;5.650;2023-04-03T11:36:44;11.9;28.5
78467;SHT31;67759;51.972;5.650;2023-04-03T11:39:23;12.1;28.5
78467;SHT31;67759;51.972;5.650;2023-04-03T11:41:54;12.2;28.5
78467;SHT31;67759;51.972;5.650;2023-04-03T11:44:34;12.3;26.8
78467;SHT31;67759;51.972;5.650;2023-04-03T11:47:07;12.4;27.2
78467;SHT31;67759;51.972;5.650;2023-04-03T11:51:52;12.4;27.2
78467;SHT31;67759;51.972;5.650;2023-04-03T11:54:47;12.5;26.7
78467;SHT31;67759;51.972;5.650;2023-04-03T12:00:58;12.6;27.2
78467;SHT31;67759;51.972;5.650;2023-04-03T12:04:12;12.6;28.6
78467;SHT31;67759;51.972;5.650;2023-04-03T12:06:50;12.8;27.3
78467;SHT31;67759;51.972;5.650;2023-04-03T12:10:43;12.8;27.6
78467;SHT31;67759;51.972;5.650;2023-04-03T12:13:18;12.9;28.5
78467;SHT31;67759;51.972;5.650;2023-04-03T12:15:55;13.0;27.0
78467;SHT31;67759;51.972;5.650;2023-04-03T12:18:53;13.1;26.6
78467;SHT31;67759;51.972;5.650;2023-04-03T12:21:20;13.2;25.7
78467;SHT31;67759;51.972;5.650;2023-04-03T12:24:02;13.3;26.3
78467;SHT31;67759;51.972;5.650;2023-04-03T12:26:40;13.3;27.0
78467;SHT31;67759;51.972;5.650;2023-04-03T12:29:15;13.3;26.5
78467;SHT31;67759;51.972;5.650;2023-04-03T12:32:00;13.3;27.4
78467;SHT31;67759;51.972;5.650;2023-04-03T12:34:46;13.4;25.8
78467;SHT31;67759;51.972;5.650;2023-04-03T12:37:43;13.4;27.0
78467;SHT31;67759;51.972;5.650;2023-04-03T12:40:25;13.4;26.0
78467;SHT31;67759;51.972;5.650;2023-04-03T12:43:25;13.4;28.3
78467;SHT31;67759;51.972;5.650;2023-04-03T12:46:02;13.5;26.8
78467;SHT31;67759;51.972;5.650;2023-04-03T12:48:46;13.5;26.2
78467;SHT31;67759;51.972;5.650;2023-04-03T12:51:19;13.5;28.4
78467;SHT31;67759;51.972;5.650;2023-04-03T12:53:52;13.6;26.2
78467;SHT31;67759;51.972;5.650;2023-04-03T12:56:31;13.6;27.1
78467;SHT31;67759;51.972;5.650;2023-04-03T12:59:16;13.5;28.5
78467;SHT31;67759;51.972;5.650;2023-04-03T13:01:58;13.6;28.4
78467;SHT31;67759;51.972;5.650;2023-04-03T13:04:31;13.6;27.9
78467;SHT31;67759;51.972;5.650;2023-04-03T13:07:02;13.7;28.2
78467;SHT31;67759;51.972;5.650;2023-04-03T13:09:32;13.9;25.8
78467;SHT31;67759;51.972;5.650;2023-04-03T13:12:09;13.9;27.1
78467;SHT31;67759;51.972;5.650;2023-04-03T13:14:49;14.0;25.9
78467;SHT31;67759;51.972;5.650;2023-04-03T13:17:16;14.0;27.4
78467;SHT31;67759;51.972;5.650;2023-04-03T13:19:48;14.0;26.9
78467;SHT31;67759;51.972;5.650;2023-04-03T13:22:25;14.1;27.2
78467;SHT31;67759;51.972;5.650;2023-04-03T13:25:00;14.2;25.5
78467;SHT31;67759;51.972;5.650;2023-04-03T13:27:32;14.2;27.7
78467;SHT31;67759;51.972;5.650;2023-04-03T13:30:04;14.3;26.3
78467;SHT31;67759;51.972;5.650;2023-04-03T13:32:34;14.4;27.3
78467;SHT31;67759;51.972;5.650;2023-04-03T13:35:24;14.4;25.6
78467;SHT31;67759;51.972;5.650;2023-04-03T13:37:58;14.4;24.8
78467;SHT31;67759;51.972;5.650;2023-04-03T13:40:28;14.4;24.7
78467;SHT31;67759;51.972;5.650;2023-04-03T13:43:04;14.2;26.1
78467;SHT31;67759;51.972;5.650;2023-04-03T13:45:34;14.2;25.8
78467;SHT31;67759;51.972;5.650;2023-04-03T13:48:16;14.2;25.7
78467;SHT31;67759;51.972;5.650;2023-04-03T13:50:57;14.1;26.6
78467;SHT31;67759;51.972;5.650;2023-04-03T13:53:29;14.1;25.4
78467;SHT31;67759;51.972;5.650;2023-04-03T13:56:06;14.1;28.1
78467;SHT31;67759;51.972;5.650;2023-04-03T13:58:37;14.1;26.1
78467;SHT31;67759;51.972;5.650;2023-04-03T14:01:19;14.2;26.6
78467;SHT31;67759;51.972;5.650;2023-04-03T14:03:53;14.2;26.0
78467;SHT31;67759;51.972;5.650;2023-04-03T14:06:24;14.2;26.3
78467;SHT31;67759;51.972;5.650;2023-04-03T14:08:55;14.2;26.4
78467;SHT31;67759;51.972;5.650;2023-04-03T14:11:29;14.3;25.8
78467;SHT31;67759;51.972;5.650;2023-04-03T14:14:04;14.3;26.5
78467;SHT31;67759;51.972;5.650;2023-04-03T14:16:39;14.3;26.7
78467;SHT31;67759;51.972;5.650;2023-04-03T14:19:18;14.4;27.8
78467;SHT31;67759;51.972;5.650;2023-04-03T14:21:49;14.4;27.6
78467;SHT31;67759;51.972;5.650;2023-04-03T14:24:20;14.4;25.5
78467;SHT31;67759;51.972;5.650;2023-04-03T14:26:52;14.4;26.2
78467;SHT31;67759;51.972;5.650;2023-04-03T14:29:22;14.4;26.1
78467;SHT31;67759;51.972;5.650;2023-04-03T14:31:52;14.4;28.1
78467;SHT31;67759;51.972;5.650;2023-04-03T14:34:21;14.4;26.5
78467;SHT31;67759;51.972;5.650;2023-04-03T14:36:51;14.4;26.9
78467;SHT31;67759;51.972;5.650;2023-04-03T14:39:21;14.4;27.9
78467;SHT31;67759;51.972;5.650;2023-04-03T14:41:50;14.5;29.8
78467;SHT31;67759;51.972;5.650;2023-04-03T14:44:21;14.6;28.3
78467;SHT31;67759;51.972;5.650;2023-04-03T14:46:51;14.8;26.6
78467;SHT31;67759;51.972;5.650;2023-04-03T14:49:24;14.9;26.2
78467;SHT31;67759;51.972;5.650;2023-04-03T14:51:55;14.8;27.7
78467;SHT31;67759;51.972;5.650;2023-04-03T14:54:25;14.7;27.6
78467;SHT31;67759;51.972;5.650;2023-04-03T14:56:59;14.6;28.3
78467;SHT31;67759;51.972;5.650;2023-04-03T14:59:30;14.5;28.2
78467;SHT31;67759;51.972;5.650;2023-04-03T15:02:01;14.5;27.5
78467;SHT31;67759;51.972;5.650;2023-04-03T15:04:36;14.5;27.2
78467;SHT31;67759;51.972;5.650;2023-04-03T15:07:08;14.5;27.9
78467;SHT31;67759;51.972;5.650;2023-04-03T15:09:38;14.5;28.4
78467;SHT31;67759;51.972;5.650;2023-04-03T15:12:11;14.6;29.0
78467;SHT31;67759;51.972;5.650;2023-04-03T15:14:40;14.8;28.3
78467;SHT31;67759;51.972;5.650;2023-04-03T15:17:15;15.0;27.9
78467;SHT31;67759;51.972;5.650;2023-04-03T15:19:46;15.2;26.6
78467;SHT31;67759;51.972;5.650;2023-04-03T15:22:18;15.2;27.2
78467;SHT31;67759;51.972;5.650;2023-04-03T15:24:47;15.3;27.8
78467;SHT31;67759;51.972;5.650;2023-04-03T15:27:17;15.3;28.7
78467;SHT31;67759;51.972;5.650;2023-04-03T15:29:47;15.3;26.6
78467;SHT31;67759;51.972;5.650;2023-04-03T15:32:19;15.4;26.6
78467;SHT31;67759;51.972;5.650;2023-04-03T15:34:50;15.4;27.3
78467;SHT31;67759;51.972;5.650;2023-04-03T15:37:20;15.4;27.2
78467;SHT31;67759;51.972;5.650;2023-04-03T15:39:49;15.4;27.1
78467;SHT31;67759;51.972;5.650;2023-04-03T15:42:19;15.5;29.0
78467;SHT31;67759;51.972;5.650;2023-04-03T15:44:49;15.6;29.0
78467;SHT31;67759;51.972;5.650;2023-04-03T15:47:18;15.8;27.6
78467;SHT31;67759;51.972;5.650;2023-04-03T15:49:48;16.0;27.9
78467;SHT31;67759;51.972;5.650;2023-04-03T15:52:17;16.2;26.5
78467;SHT31;67759;51.972;5.650;2023-04-03T15:54:47;16.3;25.5
78467;SHT31;67759;51.972;5.650;2023-04-03T15:57:17;16.3;28.3
78467;SHT31;67759;51.972;5.650;2023-04-03T15:59:48;16.5;26.9
78467;SHT31;67759;51.972;5.650;2023-04-03T16:02:18;16.7;25.5
78467;SHT31;67759;51.972;5.650;2023-04-03T16:04:49;16.9;25.4
78467;SHT31;67759;51.972;5.650;2023-04-03T16:07:20;17.0;25.1
78467;SHT31;67759;51.972;5.650;2023-04-03T16:09:51;17.0;26.4
78467;SHT31;67759;51.972;5.650;2023-04-03T16:12:22;17.1;25.2
78467;SHT31;67759;51.972;5.650;2023-04-03T16:14:52;17.1;24.7
78467;SHT31;67759;51.972;5.650;2023-04-03T16:17:22;17.1;26.0
78467;SHT31;67759;51.972;5.650;2023-04-03T16:19:52;17.1;24.9
78467;SHT31;67759;51.972;5.650;2023-04-03T16:22:25;17.1;24.8
78467;SHT31;67759;51.972;5.650;2023-04-03T16:24:56;17.0;24.6
78467;SHT31;67759;51.972;5.650;2023-04-03T16:27:25;16.9;25.4
78467;SHT31;67759;51.972;5.650;2023-04-03T16:29:58;16.8;25.0
78467;SHT31;67759;51.972;5.650;2023-04-03T16:32:30;16.8;26.0
78467;SHT31;67759;51.972;5.650;2023-04-03T16:35:00;16.7;25.9
78467;SHT31;67759;51.972;5.650;2023-04-03T16:37:30;16.7;25.6
78467;SHT31;67759;51.972;5.650;2023-04-03T16:40:01;16.6;26.0
78467;SHT31;67759;51.972;5.650;2023-04-03T16:42:32;16.6;25.0
78467;SHT31;67759;51.972;5.650;2023-04-03T16:45:02;16.3;26.2
78467;SHT31;67759;51.972;5.650;2023-04-03T16:47:33;16.2;26.6
78467;SHT31;67759;51.972;5.650;2023-04-03T16:50:02;16.1;27.1
78467;SHT31;67759;51.972;5.650;2023-04-03T16:52:32;16.2;26.5
78467;SHT31;67759;51.972;5.650;2023-04-03T16:55:03;16.3;27.0
78467;SHT31;67759;51.972;5.650;2023-04-03T16:57:32;16.4;28.0